Darstellungsparameter: Aktuell verwendete Einstellungen:
Skalierung der Graphiken ... ?
xyx+y,   Skalierungsfaktor:      Skalierung: Modus: x, Faktor: 1
Darstellungszeitraum ... ?
Vom - - bis: - -   Zeitraum: 28.12.2019 - 28.12.2019
Min/Max/Avg-Anzeige ... ?
Zeige MMA aktuell
Zeige MMA Monat
Zeige MMA alles
Zeige --A aktuell
Zeige --A Monat
Zeige --A alles
Keine MMA-Anzeige
MMA:
Average (ber die Originaldaten)
MMA-Basis: 28.12.2019 - 28.12.2019
Quicknavigation für Darstellung... ?
Tage:      1T, 2T, 3T, 5T -1T -2T -3T -5T +1T +2T +3T +5T
Wochen: 1W, 2W, 3W -1W -2W -3W +1W +2W +3W
Monate: 1M, 3M, 6M -1M -3M -6M +1M +3M +6M
Jahre:    1J, 3J, 5J, 10J -1J -3J -5J -10J +1J +3J +5J +10J
Nutze für die Darstellung ... ?
Originaldaten oder Mittelwerte auf ...
Stundenbasis Tagesbasis Wochenbasis
Monatsbasis Jahresbasis      Datenbasis: Original-Daten
Darstellen als:
Statistik (Auto) Statistik J:M      Darstellung:
Zur Graphik,    zurück zur Übersicht aller Sensoren.
 
Tabellarische Datenbersicht: ?
 
Sensor: Nr:Datum:Temp:Abs-Feuchte:Windchill:Wind:
Aussen-T/F 1 28-12-2019 00:00:00 1.4 C 5.01 g/m*3 1.4 C 0 km/h
2 28-12-2019 00:05:00 1.3 C 4.98 g/m*3 1.3 C 0 km/h
3 28-12-2019 00:10:00 1.3 C 4.98 g/m*3 1.3 C 0 km/h
4 28-12-2019 00:15:00 1.2 C 4.95 g/m*3 1.2 C 0 km/h
5 28-12-2019 00:20:00 1.2 C 4.95 g/m*3 1.2 C 1.6 km/h
6 28-12-2019 00:25:00 1.1 C 4.91 g/m*3 1.1 C 3.2 km/h
7 28-12-2019 00:30:00 1.1 C 4.91 g/m*3 1.1 C 3.2 km/h
8 28-12-2019 00:35:00 1 C 4.88 g/m*3 1 C 1.6 km/h
9 28-12-2019 00:40:00 0.9 C 4.85 g/m*3 0.9 C 3.2 km/h
10 28-12-2019 00:45:00 0.8 C 4.81 g/m*3 0.8 C 3.2 km/h
11 28-12-2019 00:50:00 0.8 C 4.81 g/m*3 0.8 C 4.8 km/h
12 28-12-2019 00:55:00 0.8 C 4.81 g/m*3 0.8 C 3.2 km/h
13 28-12-2019 01:00:00 0.8 C 4.86 g/m*3 0.8 C 1.6 km/h
14 28-12-2019 01:05:00 0.8 C 4.81 g/m*3 0.8 C 0 km/h
15 28-12-2019 01:10:00 0.8 C 4.81 g/m*3 0.8 C 1.6 km/h
16 28-12-2019 01:15:00 0.7 C 4.78 g/m*3 0.7 C 1.6 km/h
17 28-12-2019 01:20:00 0.6 C 4.8 g/m*3 0.6 C 0 km/h
18 28-12-2019 01:25:00 0.6 C 4.8 g/m*3 0.6 C 0 km/h
19 28-12-2019 01:30:00 0.5 C 4.71 g/m*3 0.5 C 0 km/h
20 28-12-2019 01:35:00 0.4 C 4.73 g/m*3 0.4 C 0 km/h
21 28-12-2019 01:40:00 0.4 C 4.73 g/m*3 0.4 C 0 km/h
22 28-12-2019 01:45:00 0.3 C 4.7 g/m*3 0.3 C 0 km/h
23 28-12-2019 01:50:00 0.3 C 4.7 g/m*3 0.3 C 0 km/h
24 28-12-2019 01:55:00 0.2 C 4.67 g/m*3 0.2 C 0 km/h
25 28-12-2019 02:00:00 0.2 C 4.67 g/m*3 0.2 C 0 km/h
Sensor: Nr:Datum:Temp:Abs-Feuchte:Windchill:Wind:
Aussen-T/F 26 28-12-2019 02:05:00 0.1 C 4.63 g/m*3 0.1 C 0 km/h
27 28-12-2019 02:10:00 0.1 C 4.63 g/m*3 0.1 C 0 km/h
28 28-12-2019 02:15:00 0 C 4.6 g/m*3 0 C 0 km/h
29 28-12-2019 02:20:00 -0.1 C 4.57 g/m*3 -0.1 C 0 km/h
30 28-12-2019 02:25:00 -0.1 C 4.57 g/m*3 -0.1 C 0 km/h
31 28-12-2019 02:30:00 -0.2 C 4.54 g/m*3 -0.2 C 0 km/h
32 28-12-2019 02:35:00 -0.2 C 4.54 g/m*3 -0.2 C 0 km/h
33 28-12-2019 02:40:00 -0.3 C 4.51 g/m*3 -0.3 C 0 km/h
34 28-12-2019 02:45:00 -0.3 C 4.51 g/m*3 -0.3 C 0 km/h
35 28-12-2019 02:50:00 -0.4 C 4.48 g/m*3 -0.4 C 0 km/h
36 28-12-2019 02:55:00 -0.4 C 4.48 g/m*3 -0.4 C 0 km/h
37 28-12-2019 03:00:00 -0.3 C 4.51 g/m*3 -0.3 C 0 km/h
38 28-12-2019 03:05:00 -0.4 C 4.48 g/m*3 -0.4 C 0 km/h
39 28-12-2019 03:10:00 -0.4 C 4.48 g/m*3 -0.4 C 0 km/h
40 28-12-2019 03:15:00 -0.5 C 4.45 g/m*3 -0.5 C 0 km/h
41 28-12-2019 03:20:00 -0.6 C 4.42 g/m*3 -0.6 C 0 km/h
42 28-12-2019 03:25:00 -0.6 C 4.42 g/m*3 -0.6 C 0 km/h
43 28-12-2019 03:30:00 -0.7 C 4.39 g/m*3 -0.7 C 0 km/h
44 28-12-2019 03:35:00 -0.7 C 4.39 g/m*3 -0.7 C 0 km/h
45 28-12-2019 03:40:00 -0.7 C 4.43 g/m*3 -0.7 C 0 km/h
46 28-12-2019 03:45:00 -0.7 C 4.43 g/m*3 -0.7 C 0 km/h
47 28-12-2019 03:50:00 -0.7 C 4.43 g/m*3 -0.7 C 0 km/h
48 28-12-2019 03:55:00 -0.7 C 4.43 g/m*3 -0.7 C 0 km/h
49 28-12-2019 04:00:00 -0.7 C 4.39 g/m*3 -0.7 C 0 km/h
50 28-12-2019 04:05:00 -0.8 C 4.35 g/m*3 -0.8 C 0 km/h
Sensor: Nr:Datum:Temp:Abs-Feuchte:Windchill:Wind:
Aussen-T/F 51 28-12-2019 04:10:00 -0.8 C 4.4 g/m*3 -0.8 C 0 km/h
52 28-12-2019 04:15:00 -0.8 C 4.4 g/m*3 -0.8 C 0 km/h
53 28-12-2019 04:20:00 -0.9 C 4.37 g/m*3 -0.9 C 0 km/h
54 28-12-2019 04:25:00 -0.9 C 4.37 g/m*3 -0.9 C 0 km/h
55 28-12-2019 04:30:00 -0.9 C 4.37 g/m*3 -0.9 C 0 km/h
56 28-12-2019 04:35:00 -1 C 4.34 g/m*3 -1 C 0 km/h
57 28-12-2019 04:40:00 -0.9 C 4.37 g/m*3 -0.9 C 0 km/h
58 28-12-2019 04:45:00 -1 C 4.34 g/m*3 -1 C 0 km/h
59 28-12-2019 04:50:00 -1 C 4.34 g/m*3 -1 C 0 km/h
60 28-12-2019 04:55:00 -1.1 C 4.31 g/m*3 -1.1 C 0 km/h
61 28-12-2019 05:00:00 -1.1 C 4.31 g/m*3 -1.1 C 0 km/h
62 28-12-2019 05:05:00 -1.1 C 4.31 g/m*3 -1.1 C 0 km/h
63 28-12-2019 05:10:00 -1.1 C 4.31 g/m*3 -1.1 C 0 km/h
64 28-12-2019 05:15:00 -1.2 C 4.28 g/m*3 -1.2 C 0 km/h
65 28-12-2019 05:20:00 -1.2 C 4.28 g/m*3 -1.2 C 0 km/h
66 28-12-2019 05:25:00 -1.2 C 4.28 g/m*3 -1.2 C 0 km/h
67 28-12-2019 05:30:00 -1.2 C 4.28 g/m*3 -1.2 C 0 km/h
68 28-12-2019 05:35:00 -1.2 C 4.28 g/m*3 -1.2 C 0 km/h
69 28-12-2019 05:40:00 -1.3 C 4.25 g/m*3 -1.3 C 0 km/h
70 28-12-2019 05:45:00 -1.2 C 4.28 g/m*3 -1.2 C 0 km/h
71 28-12-2019 05:50:00 -1.2 C 4.28 g/m*3 -1.2 C 0 km/h
72 28-12-2019 05:55:00 -1.2 C 4.28 g/m*3 -1.2 C 0 km/h
73 28-12-2019 06:00:00 -1.2 C 4.28 g/m*3 -1.2 C 1.6 km/h
74 28-12-2019 06:05:00 -1.2 C 4.28 g/m*3 -1.2 C 0 km/h
75 28-12-2019 06:10:00 -1.2 C 4.28 g/m*3 -1.2 C 0 km/h
Sensor: Nr:Datum:Temp:Abs-Feuchte:Windchill:Wind:
Aussen-T/F 76 28-12-2019 06:15:00 -1.2 C 4.28 g/m*3 -1.2 C 0 km/h
77 28-12-2019 06:20:00 -1.2 C 4.28 g/m*3 -1.2 C 0 km/h
78 28-12-2019 06:25:00 -1.3 C 4.25 g/m*3 -1.3 C 0 km/h
79 28-12-2019 06:30:00 -1.3 C 4.25 g/m*3 -1.3 C 0 km/h
80 28-12-2019 06:35:00 -1.3 C 4.25 g/m*3 -1.3 C 0 km/h
81 28-12-2019 06:40:00 -1.3 C 4.25 g/m*3 -1.3 C 0 km/h
82 28-12-2019 06:45:00 -1.3 C 4.25 g/m*3 -1.3 C 0 km/h
83 28-12-2019 06:50:00 -1.3 C 4.25 g/m*3 -1.3 C 0 km/h
84 28-12-2019 06:55:00 -1.3 C 4.25 g/m*3 -1.3 C 0 km/h
85 28-12-2019 07:00:00 -1.3 C 4.25 g/m*3 -1.3 C 0 km/h
86 28-12-2019 07:05:00 -1.3 C 4.25 g/m*3 -1.3 C 0 km/h
87 28-12-2019 07:10:00 -1.3 C 4.25 g/m*3 -1.3 C 0 km/h
88 28-12-2019 07:15:00 -1.3 C 4.25 g/m*3 -1.3 C 0 km/h
89 28-12-2019 07:20:00 -1.3 C 4.25 g/m*3 -1.3 C 0 km/h
90 28-12-2019 07:25:00 -1.4 C 4.22 g/m*3 -1.4 C 0 km/h
91 28-12-2019 07:30:00 -1.4 C 4.22 g/m*3 -1.4 C 0 km/h
92 28-12-2019 07:35:00 -1.4 C 4.22 g/m*3 -1.4 C 0 km/h
93 28-12-2019 07:40:00 -1.4 C 4.22 g/m*3 -1.4 C 0 km/h
94 28-12-2019 07:45:00 -1.4 C 4.22 g/m*3 -1.4 C 0 km/h
95 28-12-2019 07:50:00 -1.4 C 4.22 g/m*3 -1.4 C 0 km/h
96 28-12-2019 07:55:00 -1.4 C 4.22 g/m*3 -1.4 C 0 km/h
97 28-12-2019 08:00:00 -1.5 C 4.19 g/m*3 -1.5 C 0 km/h
98 28-12-2019 08:05:00 -1.5 C 4.19 g/m*3 -1.5 C 0 km/h
99 28-12-2019 08:10:00 -1.5 C 4.19 g/m*3 -1.5 C 0 km/h
100 28-12-2019 08:15:00 -1.6 C 4.16 g/m*3 -1.6 C 0 km/h
Sensor: Nr:Datum:Temp:Abs-Feuchte:Windchill:Wind:
Aussen-T/F 101 28-12-2019 08:20:00 -1.6 C 4.16 g/m*3 -1.6 C 0 km/h
102 28-12-2019 08:25:00 -1.6 C 4.16 g/m*3 -1.6 C 0 km/h
103 28-12-2019 08:30:00 -1.6 C 4.16 g/m*3 -1.6 C 0 km/h
104 28-12-2019 08:35:00 -1.7 C 4.13 g/m*3 -1.7 C 0 km/h
105 28-12-2019 08:40:00 -1.7 C 4.13 g/m*3 -1.7 C 0 km/h
106 28-12-2019 08:45:00 -1.7 C 4.13 g/m*3 -1.7 C 0 km/h
107 28-12-2019 08:50:00 -1.7 C 4.13 g/m*3 -1.7 C 0 km/h
108 28-12-2019 08:55:00 -1.7 C 4.13 g/m*3 -1.7 C 0 km/h
109 28-12-2019 09:00:00 -1.7 C 4.13 g/m*3 -1.7 C 0 km/h
110 28-12-2019 09:05:00 -1.6 C 4.16 g/m*3 -1.6 C 0 km/h
111 28-12-2019 09:10:00 -1.6 C 4.16 g/m*3 -1.6 C 0 km/h
112 28-12-2019 09:15:00 -1.6 C 4.16 g/m*3 -1.6 C 0 km/h
113 28-12-2019 09:20:00 -1.6 C 4.16 g/m*3 -1.6 C 0 km/h
114 28-12-2019 09:25:00 -1.6 C 4.16 g/m*3 -1.6 C 0 km/h
115 28-12-2019 09:30:00 -1.6 C 4.16 g/m*3 -1.6 C 0 km/h
116 28-12-2019 09:35:00 -1.6 C 4.16 g/m*3 -1.6 C 0 km/h
117 28-12-2019 09:40:00 -1.6 C 4.16 g/m*3 -1.6 C 0 km/h
118 28-12-2019 09:45:00 -1.4 C 4.22 g/m*3 -1.4 C 1.6 km/h
119 28-12-2019 09:50:00 -1.3 C 4.29 g/m*3 -1.3 C 0 km/h
120 28-12-2019 09:55:00 -1.1 C 4.35 g/m*3 -1.1 C 0 km/h
121 28-12-2019 10:00:00 -0.9 C 4.42 g/m*3 -0.9 C 0 km/h
122 28-12-2019 10:05:00 -0.8 C 4.45 g/m*3 -0.8 C 0 km/h
123 28-12-2019 10:10:00 -0.8 C 4.45 g/m*3 -0.8 C 0 km/h
124 28-12-2019 10:15:00 -0.8 C 4.45 g/m*3 -0.8 C 0 km/h
125 28-12-2019 10:20:00 -0.8 C 4.45 g/m*3 -0.8 C 0 km/h
Sensor: Nr:Datum:Temp:Abs-Feuchte:Windchill:Wind:
Aussen-T/F 126 28-12-2019 10:25:00 -0.7 C 4.48 g/m*3 -0.7 C 0 km/h
127 28-12-2019 10:30:00 -0.6 C 4.51 g/m*3 -0.6 C 3.2 km/h
128 28-12-2019 10:35:00 -0.6 C 4.51 g/m*3 -0.6 C 0 km/h
129 28-12-2019 10:40:00 -0.5 C 4.54 g/m*3 -0.5 C 0 km/h
130 28-12-2019 10:45:00 -0.4 C 4.57 g/m*3 -0.4 C 3.2 km/h
131 28-12-2019 10:50:00 -0.4 C 4.57 g/m*3 -0.4 C 3.2 km/h
132 28-12-2019 10:55:00 -0.3 C 4.6 g/m*3 -0.3 C 1.6 km/h
133 28-12-2019 11:00:00 -0.3 C 4.6 g/m*3 -0.3 C 0 km/h
134 28-12-2019 11:05:00 -0.2 C 4.64 g/m*3 -0.2 C 0 km/h
135 28-12-2019 11:10:00 -0.2 C 4.64 g/m*3 -0.2 C 1.6 km/h
136 28-12-2019 11:15:00 -0.2 C 4.64 g/m*3 -0.2 C 0 km/h
137 28-12-2019 11:20:00 -0.2 C 4.64 g/m*3 -0.2 C 3.2 km/h
138 28-12-2019 11:25:00 -0.1 C 4.67 g/m*3 -0.1 C 1.6 km/h
139 28-12-2019 11:30:00 0 C 4.7 g/m*3 0 C 0 km/h
140 28-12-2019 11:35:00 0.1 C 4.73 g/m*3 0.1 C 0 km/h
141 28-12-2019 11:40:00 0.1 C 4.73 g/m*3 0.1 C 0 km/h
142 28-12-2019 11:45:00 0.1 C 4.73 g/m*3 0.1 C 0 km/h
143 28-12-2019 11:50:00 0.1 C 4.73 g/m*3 0.1 C 0 km/h
144 28-12-2019 11:55:00 0.1 C 4.73 g/m*3 0.1 C 0 km/h
145 28-12-2019 12:00:00 0.2 C 4.77 g/m*3 0.2 C 0 km/h
146 28-12-2019 12:05:00 0.2 C 4.77 g/m*3 0.2 C 0 km/h
147 28-12-2019 12:10:00 0.3 C 4.8 g/m*3 0.3 C 0 km/h
148 28-12-2019 12:15:00 0.4 C 4.83 g/m*3 0.4 C 0 km/h
149 28-12-2019 12:20:00 0.5 C 4.86 g/m*3 0.5 C 0 km/h
150 28-12-2019 12:25:00 0.6 C 4.9 g/m*3 0.6 C 0 km/h
Sensor: Nr:Datum:Temp:Abs-Feuchte:Windchill:Wind:
Aussen-T/F 151 28-12-2019 12:30:00 0.6 C 4.9 g/m*3 0.6 C 0 km/h
152 28-12-2019 12:35:00 0.6 C 4.9 g/m*3 0.6 C 0 km/h
153 28-12-2019 12:40:00 0.7 C 4.93 g/m*3 0.7 C 0 km/h
154 28-12-2019 12:45:00 0.7 C 4.93 g/m*3 0.7 C 0 km/h
155 28-12-2019 12:50:00 0.8 C 4.97 g/m*3 0.8 C 0 km/h
156 28-12-2019 12:55:00 0.8 C 4.97 g/m*3 0.8 C 0 km/h
157 28-12-2019 13:00:00 0.9 C 5 g/m*3 0.9 C 0 km/h
158 28-12-2019 13:05:00 0.9 C 5 g/m*3 0.9 C 0 km/h
159 28-12-2019 13:10:00 1 C 5.03 g/m*3 1 C 0 km/h
160 28-12-2019 13:15:00 1.1 C 5.07 g/m*3 1.1 C 0 km/h
161 28-12-2019 13:20:00 1.2 C 5.1 g/m*3 1.2 C 0 km/h
162 28-12-2019 13:25:00 1.2 C 5.1 g/m*3 1.2 C 0 km/h
163 28-12-2019 13:30:00 1.3 C 5.14 g/m*3 1.3 C 0 km/h
164 28-12-2019 13:35:00 1.3 C 5.14 g/m*3 1.3 C 0 km/h
165 28-12-2019 13:40:00 1.3 C 5.14 g/m*3 1.3 C 0 km/h
166 28-12-2019 13:45:00 1.3 C 5.14 g/m*3 1.3 C 0 km/h
167 28-12-2019 13:50:00 1.3 C 5.14 g/m*3 1.3 C 1.6 km/h
168 28-12-2019 13:55:00 1.3 C 5.14 g/m*3 1.3 C 0 km/h
169 28-12-2019 14:00:00 1.3 C 5.14 g/m*3 1.3 C 0 km/h
170 28-12-2019 14:05:00 1.3 C 5.14 g/m*3 1.3 C 0 km/h
171 28-12-2019 14:10:00 1.3 C 5.14 g/m*3 1.3 C 0 km/h
172 28-12-2019 14:15:00 1.3 C 5.14 g/m*3 1.3 C 0 km/h
173 28-12-2019 14:20:00 1.4 C 5.17 g/m*3 1.4 C 0 km/h
174 28-12-2019 14:25:00 1.4 C 5.17 g/m*3 1.4 C 0 km/h
175 28-12-2019 14:30:00 1.4 C 5.17 g/m*3 1.4 C 0 km/h
Sensor: Nr:Datum:Temp:Abs-Feuchte:Windchill:Wind:
Aussen-T/F 176 28-12-2019 14:35:00 1.4 C 5.17 g/m*3 1.4 C 0 km/h
177 28-12-2019 14:40:00 1.3 C 5.14 g/m*3 1.3 C 0 km/h
178 28-12-2019 14:45:00 1.3 C 5.14 g/m*3 1.3 C 0 km/h
179 28-12-2019 14:50:00 1.3 C 5.14 g/m*3 1.3 C 0 km/h
180 28-12-2019 14:55:00 1.2 C 5.1 g/m*3 1.2 C 3.2 km/h
181 28-12-2019 15:00:00 1.2 C 5.1 g/m*3 1.2 C 1.6 km/h
182 28-12-2019 15:05:00 1.2 C 5.05 g/m*3 1.2 C 1.6 km/h
183 28-12-2019 15:10:00 1.2 C 5.05 g/m*3 1.2 C 0 km/h
184 28-12-2019 15:15:00 1.1 C 5.02 g/m*3 1.1 C 0 km/h
185 28-12-2019 15:20:00 1.1 C 5.02 g/m*3 1.1 C 0 km/h
186 28-12-2019 15:25:00 1.1 C 5.02 g/m*3 1.1 C 0 km/h
187 28-12-2019 15:30:00 1.1 C 5.02 g/m*3 1.1 C 0 km/h
188 28-12-2019 15:35:00 1 C 4.98 g/m*3 1 C 0 km/h
189 28-12-2019 15:40:00 1 C 4.98 g/m*3 1 C 0 km/h
190 28-12-2019 15:45:00 1 C 4.98 g/m*3 1 C 0 km/h
191 28-12-2019 15:50:00 1 C 4.98 g/m*3 1 C 0 km/h
192 28-12-2019 15:55:00 1 C 4.98 g/m*3 1 C 0 km/h
193 28-12-2019 16:00:00 1 C 4.98 g/m*3 1 C 0 km/h
194 28-12-2019 16:05:00 0.9 C 4.95 g/m*3 0.9 C 0 km/h
195 28-12-2019 16:10:00 0.9 C 4.95 g/m*3 0.9 C 0 km/h
196 28-12-2019 16:15:00 0.8 C 4.91 g/m*3 0.8 C 0 km/h
197 28-12-2019 16:20:00 0.8 C 4.91 g/m*3 0.8 C 0 km/h
198 28-12-2019 16:25:00 0.8 C 4.91 g/m*3 0.8 C 0 km/h
199 28-12-2019 16:30:00 0.7 C 4.88 g/m*3 0.7 C 0 km/h
200 28-12-2019 16:35:00 0.6 C 4.85 g/m*3 0.6 C 0 km/h
Sensor: Nr:Datum:Temp:Abs-Feuchte:Windchill:Wind:
Aussen-T/F 201 28-12-2019 16:40:00 0.6 C 4.85 g/m*3 0.6 C 0 km/h
202 28-12-2019 16:45:00 0.5 C 4.81 g/m*3 0.5 C 0 km/h
203 28-12-2019 16:50:00 0.4 C 4.78 g/m*3 0.4 C 0 km/h
204 28-12-2019 16:55:00 0.4 C 4.78 g/m*3 0.4 C 0 km/h
205 28-12-2019 17:00:00 0.3 C 4.75 g/m*3 0.3 C 0 km/h
206 28-12-2019 17:05:00 0.3 C 4.75 g/m*3 0.3 C 0 km/h
207 28-12-2019 17:10:00 0.3 C 4.75 g/m*3 0.3 C 0 km/h
208 28-12-2019 17:15:00 0.3 C 4.75 g/m*3 0.3 C 0 km/h
209 28-12-2019 17:20:00 0.3 C 4.75 g/m*3 0.3 C 0 km/h
210 28-12-2019 17:25:00 0.2 C 4.72 g/m*3 0.2 C 0 km/h
211 28-12-2019 17:30:00 0.2 C 4.72 g/m*3 0.2 C 0 km/h
212 28-12-2019 17:35:00 0.2 C 4.72 g/m*3 0.2 C 0 km/h
213 28-12-2019 17:40:00 0.1 C 4.68 g/m*3 0.1 C 0 km/h
214 28-12-2019 17:45:00 0.1 C 4.68 g/m*3 0.1 C 0 km/h
215 28-12-2019 17:50:00 0.1 C 4.68 g/m*3 0.1 C 0 km/h
216 28-12-2019 17:55:00 -0.1 C 4.62 g/m*3 -0.1 C 0 km/h
217 28-12-2019 18:00:00 -0.1 C 4.57 g/m*3 -0.1 C 0 km/h
218 28-12-2019 18:05:00 -0.2 C 4.54 g/m*3 -0.2 C 0 km/h
219 28-12-2019 18:10:00 -0.2 C 4.59 g/m*3 -0.2 C 0 km/h
220 28-12-2019 18:15:00 -0.3 C 4.56 g/m*3 -0.3 C 0 km/h
221 28-12-2019 18:20:00 -0.3 C 4.56 g/m*3 -0.3 C 0 km/h
222 28-12-2019 18:25:00 -0.3 C 4.56 g/m*3 -0.3 C 0 km/h
223 28-12-2019 18:30:00 -0.3 C 4.56 g/m*3 -0.3 C 0 km/h
224 28-12-2019 18:35:00 -0.3 C 4.56 g/m*3 -0.3 C 0 km/h
225 28-12-2019 18:40:00 -0.3 C 4.56 g/m*3 -0.3 C 0 km/h
Sensor: Nr:Datum:Temp:Abs-Feuchte:Windchill:Wind:
Aussen-T/F 226 28-12-2019 18:45:00 -0.3 C 4.56 g/m*3 -0.3 C 0 km/h
227 28-12-2019 18:50:00 -0.3 C 4.56 g/m*3 -0.3 C 0 km/h
228 28-12-2019 18:55:00 -0.4 C 4.52 g/m*3 -0.4 C 0 km/h
229 28-12-2019 19:00:00 -0.4 C 4.52 g/m*3 -0.4 C 0 km/h
230 28-12-2019 19:05:00 -0.4 C 4.52 g/m*3 -0.4 C 0 km/h
231 28-12-2019 19:10:00 -0.4 C 4.52 g/m*3 -0.4 C 0 km/h
232 28-12-2019 19:15:00 -0.5 C 4.49 g/m*3 -0.5 C 0 km/h
233 28-12-2019 19:20:00 -0.5 C 4.49 g/m*3 -0.5 C 0 km/h
234 28-12-2019 19:25:00 -0.5 C 4.49 g/m*3 -0.5 C 0 km/h
235 28-12-2019 19:30:00 -0.5 C 4.49 g/m*3 -0.5 C 0 km/h
236 28-12-2019 19:35:00 -0.6 C 4.46 g/m*3 -0.6 C 0 km/h
237 28-12-2019 19:40:00 -0.6 C 4.46 g/m*3 -0.6 C 0 km/h
238 28-12-2019 19:45:00 -0.6 C 4.46 g/m*3 -0.6 C 0 km/h
239 28-12-2019 19:50:00 -0.7 C 4.43 g/m*3 -0.7 C 0 km/h
240 28-12-2019 19:55:00 -0.6 C 4.46 g/m*3 -0.6 C 0 km/h
241 28-12-2019 20:00:00 -0.6 C 4.46 g/m*3 -0.6 C 0 km/h
242 28-12-2019 20:05:00 -0.6 C 4.46 g/m*3 -0.6 C 0 km/h
243 28-12-2019 20:10:00 -0.7 C 4.43 g/m*3 -0.7 C 0 km/h
244 28-12-2019 20:15:00 -0.6 C 4.46 g/m*3 -0.6 C 0 km/h
245 28-12-2019 20:20:00 -0.6 C 4.46 g/m*3 -0.6 C 3.2 km/h
246 28-12-2019 20:25:00 -0.6 C 4.46 g/m*3 -0.6 C 0 km/h
247 28-12-2019 20:30:00 -0.4 C 4.52 g/m*3 -0.4 C 0 km/h
248 28-12-2019 20:35:00 -0.3 C 4.56 g/m*3 -0.3 C 0 km/h
249 28-12-2019 20:40:00 -0.3 C 4.56 g/m*3 -0.3 C 0 km/h
250 28-12-2019 20:45:00 -0.3 C 4.56 g/m*3 -0.3 C 0 km/h
Sensor: Nr:Datum:Temp:Abs-Feuchte:Windchill:Wind:
Aussen-T/F 251 28-12-2019 20:50:00 -0.3 C 4.56 g/m*3 -0.3 C 0 km/h
252 28-12-2019 20:55:00 -0.3 C 4.56 g/m*3 -0.3 C 0 km/h
253 28-12-2019 21:00:00 -0.3 C 4.56 g/m*3 -0.3 C 0 km/h
254 28-12-2019 21:05:00 -0.3 C 4.56 g/m*3 -0.3 C 0 km/h
255 28-12-2019 21:10:00 -0.4 C 4.52 g/m*3 -0.4 C 0 km/h
256 28-12-2019 21:15:00 -0.4 C 4.52 g/m*3 -0.4 C 4.8 km/h
257 28-12-2019 21:20:00 -0.4 C 4.52 g/m*3 -0.4 C 1.6 km/h
258 28-12-2019 21:25:00 -0.4 C 4.52 g/m*3 -0.4 C 0 km/h
259 28-12-2019 21:30:00 -0.4 C 4.52 g/m*3 -0.4 C 0 km/h
260 28-12-2019 21:35:00 -0.4 C 4.52 g/m*3 -0.4 C 0 km/h
261 28-12-2019 21:40:00 -0.5 C 4.49 g/m*3 -0.5 C 0 km/h
262 28-12-2019 21:45:00 -0.6 C 4.46 g/m*3 -0.6 C 0 km/h
263 28-12-2019 21:50:00 -0.6 C 4.46 g/m*3 -0.6 C 3.2 km/h
264 28-12-2019 21:55:00 -0.7 C 4.43 g/m*3 -0.7 C 0 km/h
265 28-12-2019 22:00:00 -0.8 C 4.4 g/m*3 -0.8 C 0 km/h
266 28-12-2019 22:05:00 -0.8 C 4.4 g/m*3 -0.8 C 0 km/h
267 28-12-2019 22:10:00 -0.8 C 4.4 g/m*3 -0.8 C 0 km/h
268 28-12-2019 22:15:00 -0.9 C 4.37 g/m*3 -0.9 C 0 km/h
269 28-12-2019 22:20:00 -0.9 C 4.37 g/m*3 -0.9 C 0 km/h
270 28-12-2019 22:25:00 -1 C 4.34 g/m*3 -1 C 0 km/h
271 28-12-2019 22:30:00 -1 C 4.34 g/m*3 -1 C 0 km/h
272 28-12-2019 22:35:00 -1.1 C 4.31 g/m*3 -1.1 C 0 km/h
273 28-12-2019 22:40:00 -1.1 C 4.31 g/m*3 -1.1 C 0 km/h
274 28-12-2019 22:45:00 -1.1 C 4.31 g/m*3 -1.1 C 0 km/h
275 28-12-2019 22:50:00 -1.1 C 4.31 g/m*3 -1.1 C 0 km/h
Sensor: Nr:Datum:Temp:Abs-Feuchte:Windchill:Wind:
Aussen-T/F 276 28-12-2019 22:55:00 -1.1 C 4.31 g/m*3 -1.1 C 0 km/h
277 28-12-2019 23:00:00 -1.2 C 4.28 g/m*3 -1.2 C 0 km/h
278 28-12-2019 23:05:00 -1.2 C 4.28 g/m*3 -1.2 C 0 km/h
279 28-12-2019 23:10:00 -1.2 C 4.28 g/m*3 -1.2 C 0 km/h
280 28-12-2019 23:15:00 -1.2 C 4.28 g/m*3 -1.2 C 0 km/h
281 28-12-2019 23:20:00 -1.2 C 4.28 g/m*3 -1.2 C 0 km/h
282 28-12-2019 23:25:00 -1.2 C 4.28 g/m*3 -1.2 C 0 km/h
283 28-12-2019 23:30:00 -1.3 C 4.25 g/m*3 -1.3 C 0 km/h
284 28-12-2019 23:35:00 -1.3 C 4.25 g/m*3 -1.3 C 0 km/h
285 28-12-2019 23:40:00 -1.3 C 4.25 g/m*3 -1.3 C 0 km/h
286 28-12-2019 23:45:00 -1.3 C 4.25 g/m*3 -1.3 C 0 km/h
287 28-12-2019 23:50:00 -1.4 C 4.22 g/m*3 -1.4 C 0 km/h
288 28-12-2019 23:55:00 -1.4 C 4.22 g/m*3 -1.4 C 0 km/h

Legende:
   Min
   Max


Maximal/Minimal-Werte vom 28.12.2019 - 28.12.2019

Sensor Min Max Avg
Temp
(Aussen-T/F)
-1.7 °C
28-12-2019  08:35:00
1.4 °C
28-12-2019  00:00:00
-0.27 °C
Abs-Feuchte
(Aussen-T/F)
4.13 g/m*3
28-12-2019  08:35:00
5.17 g/m*3
28-12-2019  14:20:00
4.56 g/m*3
Windchill
(Aussen-T/F)
-1.7 C
28-12-2019  08:35:00
1.4 C
28-12-2019  00:00:00
-0.27 C

Die Daten stammen von einer Davis Vantage Pro 2 Wetter-Station und werden unter Linux mit der Software wview2wettercgi und aufbereitet. Alle Angaben erfolgen ohne Gewähr für ihre Vollständigkeit oder Richtigkeit.
Kontakt: Rainer Krienke krienke@uni-koblenz.de . Meine Webseiten an der Uni Koblenz oder privat.
Version: $Revision: 0.78 $